Terminal Aerodrome Forecast
Issued by NWS

Home | Current Version | Previous Version | Graphics & Text | Print | Product List | Glossary On
Versions: 1 2 3 4 5 6 7 8 9 10 11 12 13 14 15 16 17 18 19 20 21 22 23 24 25 26 27 28 29 30 31 32 33
000
FTUS43 KLOT 142200 AAB
TAFORD
TAF AMD
KORD 142204Z 1422/1524 18009KT 4SM BR OVC005
     FM151500 16010KT 6SM BR BKN015 OVC030
     FM151800 15012KT 4SM -RA BR SCT007 OVC012=

USA.gov is the U.S. government's official web portal to all federal, state and local government web resources and services.